Time;durP1;ratioP1;P1;durP2;ratioP2;P2;SDS_P1;SDS_P2;PMS_P1;PMS_P2;Temp;Humidity;BMP_temperature;BMP_pressure;BME280_temperature;BME280_humidity;BME280_pressure;Samples;Min_cycle;Max_cycle;Signal;HPM_P1;HPM_P2
2022/09/12 00:00:50;;;;;;;14.80;13.30;;;17.40;99.90;;;;;;5013427;28;20536;-66
2022/09/12 00:03:16;;;;;;;15.23;13.83;;;17.40;99.90;;;;;;5013618;28;20210;-66
2022/09/12 00:05:46;;;;;;;15.67;13.97;;;17.40;99.90;;;;;;4999571;28;20195;-66
2022/09/12 00:08:13;;;;;;;15.07;13.67;;;17.40;99.90;;;;;;4994021;28;20242;-66
2022/09/12 00:10:40;;;;;;;16.10;14.60;;;17.30;99.90;;;;;;5008586;28;20438;-66
2022/09/12 00:13:07;;;;;;;15.70;14.20;;;17.30;99.90;;;;;;5013634;28;20429;-66
2022/09/12 00:15:41;;;;;;;14.03;12.63;;;17.30;99.90;;;;;;5011484;28;20841;-66
2022/09/12 00:18:11;;;;;;;15.20;13.70;;;17.30;99.90;;;;;;5013588;28;20416;-66
2022/09/12 00:20:43;;;;;;;14.57;13.20;;;17.30;99.90;;;;;;5012440;28;20768;-66
2022/09/12 00:23:09;;;;;;;15.43;13.90;;;17.30;99.90;;;;;;5013397;28;20446;-66
2022/09/12 00:25:44;;;;;;;15.00;13.60;;;17.30;99.90;;;;;;5011571;28;20641;-66
2022/09/12 00:28:11;;;;;;;17.43;13.00;;;17.20;99.90;;;;;;5013318;28;20409;-66
2022/09/12 00:30:47;;;;;;;15.50;14.00;;;17.20;99.90;;;;;;5011666;28;20905;-66
2022/09/12 00:33:15;;;;;;;14.13;12.83;;;17.20;99.90;;;;;;5010429;28;20434;-66
2022/09/12 00:35:51;;;;;;;15.03;13.53;;;17.20;99.90;;;;;;5004293;28;20471;-66
2022/09/12 00:38:18;;;;;;;18.17;14.73;;;17.20;99.90;;;;;;4993920;28;20449;-66
2022/09/12 00:40:44;;;;;;;15.63;14.13;;;17.20;99.90;;;;;;4996192;28;20434;-66
2022/09/12 00:43:38;;;;;;;14.60;13.30;;;17.20;99.90;;;;;;5013506;28;20520;-66
2022/09/12 00:46:28;;;;;;;16.63;14.23;;;17.20;99.90;;;;;;4988931;28;20489;-67
2022/09/12 00:49:04;;;;;;;14.93;13.33;;;17.10;99.90;;;;;;5011787;28;20437;-66
2022/09/12 00:51:33;;;;;;;16.23;14.67;;;17.10;99.90;;;;;;5012216;28;20760;-68
2022/09/12 00:54:08;;;;;;;14.90;13.57;;;17.10;99.90;;;;;;5011904;28;20921;-69
2022/09/12 00:56:37;;;;;;;14.73;13.23;;;17.10;99.90;;;;;;4994686;28;20437;-66
2022/09/12 00:59:31;;;;;;;15.33;13.83;;;17.10;99.90;;;;;;4995736;28;21036;-66
2022/09/12 01:01:57;;;;;;;14.20;12.70;;;17.10;99.90;;;;;;4921651;28;20830;-66
2022/09/12 01:04:26;;;;;;;14.70;13.13;;;17.00;99.90;;;;;;5006838;28;20469;-66
2022/09/12 01:06:54;;;;;;;14.43;12.93;;;17.00;99.90;;;;;;4997813;28;20439;-66
2022/09/12 01:09:22;;;;;;;14.83;13.40;;;17.00;99.90;;;;;;4993100;28;20419;-66
2022/09/12 01:11:49;;;;;;;16.00;14.40;;;17.00;99.90;;;;;;4992222;28;20481;-66
2022/09/12 01:14:16;;;;;;;14.97;13.47;;;17.00;99.90;;;;;;4998487;28;20433;-66
2022/09/12 01:16:44;;;;;;;14.70;13.13;;;16.90;99.90;;;;;;4994231;28;20430;-66
2022/09/12 01:19:31;;;;;;;14.87;13.47;;;16.90;99.90;;;;;;5008424;28;20433;-66
2022/09/12 01:22:21;;;;;;;15.53;13.83;;;16.90;99.90;;;;;;4993060;28;20524;-66
2022/09/12 01:25:04;;;;;;;14.63;13.10;;;17.00;99.90;;;;;;4994868;28;20445;-66
2022/09/12 01:27:36;;;;;;;14.80;13.20;;;16.90;99.90;;;;;;4974014;28;20438;-71
2022/09/12 01:30:20;;;;;;;14.40;13.00;;;16.90;99.90;;;;;;4992806;28;20469;-66
2022/09/12 01:33:24;;;;;;;14.07;12.67;;;16.90;99.90;;;;;;4992035;28;20407;-66
2022/09/12 01:36:37;;;;;;;14.40;13.03;;;16.90;99.90;;;;;;5009775;28;20500;-66
2022/09/12 01:39:04;;;;;;;13.40;12.00;;;16.90;99.90;;;;;;4975215;28;20571;-71
2022/09/12 01:41:51;;;;;;;14.50;13.10;;;16.90;99.90;;;;;;4992388;28;20411;-72
2022/09/12 01:45:13;;;;;;;15.57;13.13;;;16.90;99.90;;;;;;4975891;28;20469;-66
2022/09/12 01:47:59;;;;;;;15.77;12.87;;;16.80;99.90;;;;;;4968889;28;20430;-66
2022/09/12 01:50:31;;;;;;;13.20;11.90;;;16.80;99.90;;;;;;4996901;28;20445;-66
2022/09/12 01:53:15;;;;;;;13.83;12.63;;;16.70;99.90;;;;;;5011638;28;20501;-66
2022/09/12 01:55:43;;;;;;;15.60;14.00;;;16.70;99.90;;;;;;5011269;28;20417;-66
2022/09/12 01:58:25;;;;;;;14.87;13.27;;;16.70;99.90;;;;;;4994534;28;20466;-66
2022/09/12 02:01:15;;;;;;;13.93;12.50;;;16.80;99.90;;;;;;5013159;28;20429;-66
2022/09/12 02:03:48;;;;;;;13.90;12.63;;;16.80;99.90;;;;;;4986292;28;20822;-66
2022/09/12 02:06:19;;;;;;;12.60;11.30;;;16.80;99.90;;;;;;5016112;28;20467;-66
2022/09/12 02:08:55;;;;;;;13.20;12.00;;;16.80;99.90;;;;;;5015269;28;20437;-66
2022/09/12 02:11:21;;;;;;;12.67;11.40;;;16.80;99.90;;;;;;5015082;28;20443;-66
2022/09/12 02:14:08;;;;;;;13.30;12.10;;;16.80;99.90;;;;;;5013082;28;20422;-66
2022/09/12 02:16:43;;;;;;;12.00;10.90;;;16.80;99.90;;;;;;5015291;28;20463;-72
2022/09/12 02:19:22;;;;;;;19.00;11.23;;;16.80;99.90;;;;;;5015906;28;20405;-66
2022/09/12 02:21:56;;;;;;;15.70;12.57;;;16.80;99.90;;;;;;5013865;28;20444;-66
2022/09/12 02:24:29;;;;;;;12.83;11.53;;;16.70;99.90;;;;;;5015519;28;20449;-66
2022/09/12 02:27:06;;;;;;;12.67;11.37;;;16.70;99.90;;;;;;5014201;28;20503;-66
2022/09/12 02:29:32;;;;;;;14.07;12.67;;;16.70;99.90;;;;;;5014502;28;20404;-71
2022/09/12 02:32:07;;;;;;;13.43;12.23;;;16.70;99.90;;;;;;5014190;28;20524;-66
2022/09/12 02:34:48;;;;;;;12.77;11.47;;;16.70;99.90;;;;;;5014230;28;20530;-72
2022/09/12 02:37:41;;;;;;;13.47;12.13;;;16.70;99.90;;;;;;4995476;28;20423;-66
2022/09/12 02:40:08;;;;;;;12.80;11.70;;;16.60;99.90;;;;;;4994899;28;20439;-66
2022/09/12 02:42:35;;;;;;;12.60;11.30;;;16.60;99.90;;;;;;4994213;28;20466;-72
2022/09/12 02:45:02;;;;;;;13.10;11.73;;;16.60;99.90;;;;;;4982635;28;20431;-66
2022/09/12 02:48:06;;;;;;;12.40;11.23;;;16.60;99.90;;;;;;4995564;28;20427;-66
2022/09/12 02:50:33;;;;;;;13.03;11.73;;;16.50;99.90;;;;;;4991259;28;20942;-70
2022/09/12 02:53:03;;;;;;;13.90;11.83;;;16.60;99.90;;;;;;4994936;28;20950;-66
2022/09/12 02:55:33;;;;;;;12.47;11.30;;;16.50;99.90;;;;;;4994103;28;20434;-66
2022/09/12 02:58:05;;;;;;;14.23;11.80;;;16.50;99.90;;;;;;4994265;28;20446;-66
2022/09/12 03:00:38;;;;;;;13.17;11.87;;;16.50;99.90;;;;;;4993107;28;20467;-66
2022/09/12 03:03:28;;;;;;;12.23;11.03;;;16.50;99.90;;;;;;4995337;28;20548;-67
2022/09/12 03:06:18;;;;;;;16.73;11.40;;;16.50;99.90;;;;;;4994414;28;21003;-66
2022/09/12 03:09:04;;;;;;;12.57;11.30;;;16.50;99.90;;;;;;4975796;28;21794;-67
2022/09/12 03:11:45;;;;;;;13.30;11.90;;;16.50;99.90;;;;;;4991593;28;20407;-66
2022/09/12 03:15:01;;;;;;;13.17;11.73;;;16.50;99.90;;;;;;4993613;28;20522;-66
2022/09/12 03:17:42;;;;;;;13.00;11.70;;;16.50;99.90;;;;;;4878214;29;20407;-67
2022/09/12 03:20:23;;;;;;;12.23;11.03;;;16.50;99.90;;;;;;4994137;28;20492;-66
2022/09/12 03:23:04;;;;;;;13.00;11.50;;;16.50;99.90;;;;;;4993469;28;20474;-67
2022/09/12 03:25:56;;;;;;;13.87;12.43;;;16.50;99.90;;;;;;4977576;28;20477;-67
2022/09/12 03:28:22;;;;;;;13.80;12.17;;;16.50;99.90;;;;;;4994835;28;20410;-66
2022/09/12 03:30:53;;;;;;;12.80;11.53;;;16.40;99.90;;;;;;4992232;28;20426;-66
2022/09/12 03:33:24;;;;;;;13.00;11.03;;;16.40;99.90;;;;;;4994910;28;20436;-66
2022/09/12 03:35:51;;;;;;;12.50;11.20;;;16.40;99.90;;;;;;5000859;28;20556;-66
2022/09/12 03:38:17;;;;;;;12.33;11.10;;;16.40;99.90;;;;;;4996688;28;20446;-66
2022/09/12 03:40:43;;;;;;;15.00;13.70;;;16.30;99.90;;;;;;5007808;28;20945;-67
2022/09/12 03:43:09;;;;;;;13.90;12.70;;;16.30;99.90;;;;;;4977229;28;20462;-67
2022/09/12 03:45:36;;;;;;;12.80;11.50;;;16.30;99.90;;;;;;5008343;28;20436;-67
2022/09/12 03:48:03;;;;;;;15.73;14.33;;;16.30;99.90;;;;;;5013560;28;20417;-67
2022/09/12 03:50:28;;;;;;;13.90;12.60;;;16.30;99.90;;;;;;5012930;28;20445;-66
2022/09/12 03:52:54;;;;;;;13.60;12.30;;;16.20;99.90;;;;;;4995476;28;20455;-66
2022/09/12 03:55:20;;;;;;;13.47;11.87;;;16.20;99.90;;;;;;5012815;28;20183;-66
2022/09/12 03:57:45;;;;;;;13.57;12.27;;;16.20;99.90;;;;;;5013336;28;20236;-66
2022/09/12 04:00:11;;;;;;;12.10;10.90;;;16.20;99.90;;;;;;5011911;28;20186;-66
2022/09/12 04:02:37;;;;;;;15.57;12.37;;;16.20;99.90;;;;;;5013853;28;20256;-73
2022/09/12 04:05:03;;;;;;;11.80;10.60;;;16.20;99.90;;;;;;5013231;28;20917;-66
2022/09/12 04:07:29;;;;;;;13.23;11.80;;;16.20;99.90;;;;;;5013625;28;20182;-67
2022/09/12 04:09:55;;;;;;;11.97;10.70;;;16.10;99.90;;;;;;5011233;28;20761;-66
2022/09/12 04:12:21;;;;;;;14.83;13.43;;;16.20;99.90;;;;;;5012675;28;20201;-67
2022/09/12 04:14:47;;;;;;;14.53;13.13;;;16.10;99.90;;;;;;5009168;28;20229;-66
2022/09/12 04:17:13;;;;;;;16.37;14.37;;;16.20;99.90;;;;;;5013494;28;20467;-66
2022/09/12 04:19:39;;;;;;;12.33;11.23;;;16.10;99.90;;;;;;5006261;28;20437;-72
2022/09/12 04:22:05;;;;;;;12.50;10.50;;;16.10;99.90;;;;;;4992640;28;20785;-67
2022/09/12 04:24:30;;;;;;;14.53;12.77;;;16.10;99.90;;;;;;5001131;28;20411;-66
2022/09/12 04:26:56;;;;;;;12.50;11.20;;;16.10;99.90;;;;;;5011106;28;20187;-66
2022/09/12 04:29:22;;;;;;;15.10;13.90;;;16.10;99.90;;;;;;5006627;28;20190;-66
2022/09/12 04:31:48;;;;;;;12.63;11.43;;;16.10;99.90;;;;;;5011242;28;20245;-68
2022/09/12 04:34:14;;;;;;;14.07;12.53;;;16.10;99.90;;;;;;5013081;28;20201;-67
2022/09/12 04:36:40;;;;;;;13.93;11.33;;;16.10;99.90;;;;;;5011965;28;20233;-67
2022/09/12 04:39:06;;;;;;;11.53;10.50;;;16.10;99.90;;;;;;5011858;28;20439;-66
2022/09/12 04:41:36;;;;;;;11.23;9.93;;;16.10;99.90;;;;;;5013377;28;20760;-66
2022/09/12 04:44:09;;;;;;;12.17;11.07;;;16.10;99.90;;;;;;5012761;28;20445;-66
2022/09/12 04:46:37;;;;;;;11.30;10.30;;;16.10;99.90;;;;;;5012408;28;20433;-67
2022/09/12 04:49:04;;;;;;;11.57;10.00;;;16.10;99.90;;;;;;5008707;28;20520;-66
2022/09/12 04:51:32;;;;;;;12.40;11.10;;;16.10;99.90;;;;;;4993650;28;20440;-66
2022/09/12 04:54:06;;;;;;;13.70;12.33;;;16.10;99.90;;;;;;4992626;28;20457;-66
2022/09/12 04:56:35;;;;;;;13.20;11.17;;;16.10;99.90;;;;;;5002255;28;20769;-66
2022/09/12 04:59:01;;;;;;;13.30;11.03;;;16.10;99.90;;;;;;4993893;28;20429;-66
2022/09/12 05:01:28;;;;;;;13.83;12.43;;;16.10;99.90;;;;;;5010007;28;20462;-66
2022/09/12 05:03:56;;;;;;;13.93;12.53;;;16.10;99.90;;;;;;5012409;28;20678;-66
2022/09/12 05:06:31;;;;;;;12.77;11.40;;;16.10;99.90;;;;;;5012712;28;20420;-66
2022/09/12 05:08:58;;;;;;;12.30;10.73;;;16.10;99.90;;;;;;5010634;28;20440;-67
2022/09/12 05:11:29;;;;;;;15.20;12.13;;;16.10;99.90;;;;;;5010945;28;20432;-66
2022/09/12 05:13:56;;;;;;;13.47;12.03;;;16.10;99.90;;;;;;5011147;28;20447;-66
2022/09/12 05:16:23;;;;;;;15.40;13.40;;;16.10;99.90;;;;;;5010642;28;20429;-66
2022/09/12 05:18:49;;;;;;;13.40;11.50;;;16.10;99.90;;;;;;5010651;28;20527;-67
2022/09/12 05:21:17;;;;;;;17.27;13.67;;;16.10;99.90;;;;;;5012522;28;20531;-66
2022/09/12 05:23:43;;;;;;;12.90;11.60;;;16.10;99.90;;;;;;5012274;28;20213;-67
2022/09/12 05:26:16;;;;;;;12.67;11.13;;;16.10;99.90;;;;;;5012806;28;20424;-66
2022/09/12 05:28:42;;;;;;;15.70;13.33;;;16.10;99.90;;;;;;5012802;28;20517;-66
2022/09/12 05:31:19;;;;;;;13.80;12.13;;;16.10;99.90;;;;;;5011685;28;20437;-67
2022/09/12 05:33:48;;;;;;;11.27;10.27;;;16.00;99.90;;;;;;5012193;28;20420;-67
2022/09/12 05:36:19;;;;;;;11.50;10.40;;;16.10;99.90;;;;;;5016023;28;20552;-66
2022/09/12 05:38:45;;;;;;;12.60;11.30;;;16.10;99.90;;;;;;5015974;28;20504;-67
2022/09/12 05:41:20;;;;;;;11.47;10.40;;;16.10;99.90;;;;;;5015625;28;20543;-66
2022/09/12 05:43:50;;;;;;;12.53;11.03;;;16.10;99.90;;;;;;5015925;28;20524;-67
2022/09/12 05:46:18;;;;;;;12.47;11.23;;;16.10;99.90;;;;;;5016452;28;20522;-66
2022/09/12 05:48:45;;;;;;;12.20;10.90;;;16.10;99.90;;;;;;5015895;28;20411;-70
2022/09/12 05:51:17;;;;;;;15.30;13.80;;;16.20;99.90;;;;;;5014619;28;20464;-66
2022/09/12 05:53:45;;;;;;;11.03;9.93;;;16.20;99.90;;;;;;5016105;28;20405;-72
2022/09/12 05:56:16;;;;;;;14.47;13.17;;;16.30;99.90;;;;;;5013643;28;20951;-66
2022/09/12 05:58:45;;;;;;;10.47;9.47;;;16.30;99.90;;;;;;5003127;28;20460;-67
2022/09/12 06:01:17;;;;;;;12.90;10.37;;;16.30;99.90;;;;;;5011003;28;20597;-66
2022/09/12 06:03:45;;;;;;;13.27;11.93;;;16.40;99.90;;;;;;5013102;28;20469;-67
2022/09/12 06:06:12;;;;;;;13.20;10.03;;;16.50;99.90;;;;;;5015258;28;20432;-67
2022/09/12 06:08:40;;;;;;;11.03;10.13;;;16.80;99.90;;;;;;5016374;28;20456;-67
2022/09/12 06:11:08;;;;;;;9.27;8.33;;;17.20;99.90;;;;;;5014012;28;20421;-67
2022/09/12 06:13:36;;;;;;;10.13;8.50;;;17.50;99.90;;;;;;5014541;28;20488;-67
2022/09/12 06:16:07;;;;;;;9.90;8.90;;;17.80;99.90;;;;;;5014473;28;20428;-67
2022/09/12 06:18:34;;;;;;;8.80;8.10;;;18.10;99.90;;;;;;5016094;28;20506;-67
2022/09/12 06:21:27;;;;;;;9.60;8.20;;;18.40;99.90;;;;;;5014435;28;20508;-67
2022/09/12 06:23:54;;;;;;;9.20;8.37;;;18.70;99.90;;;;;;5009809;28;20515;-66
2022/09/12 06:26:22;;;;;;;9.53;8.67;;;18.90;99.90;;;;;;5015946;28;20417;-68
2022/09/12 06:28:49;;;;;;;9.93;9.07;;;18.90;99.90;;;;;;5014655;28;20428;-64
2022/09/12 06:31:19;;;;;;;9.83;8.93;;;18.80;99.90;;;;;;5013600;28;20461;-64
2022/09/12 06:33:48;;;;;;;12.00;10.90;;;18.60;99.90;;;;;;4997158;28;20437;-63
2022/09/12 06:36:20;;;;;;;10.87;9.80;;;18.50;99.90;;;;;;5004139;28;20594;-65
2022/09/12 06:38:47;;;;;;;11.80;10.67;;;18.30;99.90;;;;;;5011106;28;20905;-72
2022/09/12 06:41:14;;;;;;;11.57;9.90;;;18.10;99.90;;;;;;5011879;28;20471;-63
2022/09/12 06:43:41;;;;;;;12.20;10.30;;;18.00;99.90;;;;;;5014539;28;20450;-63
2022/09/12 06:46:08;;;;;;;11.17;10.10;;;17.90;99.90;;;;;;5014865;28;20425;-64
2022/09/12 06:48:34;;;;;;;11.73;10.63;;;17.80;99.90;;;;;;5003058;28;20951;-63
2022/09/12 06:51:08;;;;;;;12.80;11.60;;;17.80;99.90;;;;;;5014366;28;20964;-64
2022/09/12 06:53:35;;;;;;;13.17;11.90;;;17.70;99.90;;;;;;5014539;28;20429;-64
2022/09/12 06:56:08;;;;;;;14.80;13.30;;;17.60;99.90;;;;;;5013761;28;20479;-63
2022/09/12 06:58:34;;;;;;;15.60;14.30;;;17.60;99.90;;;;;;5015505;28;20483;-63
2022/09/12 07:01:09;;;;;;;13.43;12.00;;;17.60;99.90;;;;;;5013439;28;20756;-64
2022/09/12 07:03:37;;;;;;;14.90;13.60;;;17.60;99.90;;;;;;5008943;28;20494;-64
2022/09/12 07:06:10;;;;;;;13.17;11.90;;;17.60;99.90;;;;;;5014912;28;20432;-64
2022/09/12 07:08:37;;;;;;;13.57;12.37;;;17.60;99.90;;;;;;5014212;28;20406;-64
2022/09/12 07:11:18;;;;;;;13.57;12.27;;;17.70;99.90;;;;;;5008885;28;20437;-64
2022/09/12 07:13:46;;;;;;;12.83;11.63;;;17.70;99.90;;;;;;5013422;28;20438;-63
2022/09/12 07:16:13;;;;;;;13.33;10.87;;;17.80;99.90;;;;;;5014418;28;20406;-64
2022/09/12 07:18:39;;;;;;;13.47;11.47;;;17.80;99.90;;;;;;5012920;28;20418;-63
2022/09/12 07:21:13;;;;;;;12.13;10.93;;;17.80;99.90;;;;;;5012272;28;20469;-64
2022/09/12 07:23:39;;;;;;;12.20;11.10;;;17.80;99.90;;;;;;5013831;28;20497;-63
2022/09/12 07:26:06;;;;;;;11.70;10.60;;;17.90;99.90;;;;;;5014212;28;20414;-64
2022/09/12 07:28:33;;;;;;;13.90;12.70;;;17.90;99.90;;;;;;5014896;28;20416;-64
2022/09/12 07:31:10;;;;;;;14.00;10.50;;;17.90;99.90;;;;;;5005425;28;20425;-64
2022/09/12 07:33:37;;;;;;;14.83;13.53;;;18.00;99.90;;;;;;5026906;28;20516;-62
2022/09/12 07:36:10;;;;;;;11.43;10.33;;;18.00;99.90;;;;;;5013447;28;20488;-62
2022/09/12 07:38:40;;;;;;;13.23;12.10;;;18.10;99.90;;;;;;5013568;28;20468;-62
2022/09/12 07:41:19;;;;;;;12.97;11.63;;;18.10;99.90;;;;;;5013661;28;20501;-62
2022/09/12 07:43:46;;;;;;;12.87;11.67;;;18.20;99.90;;;;;;5000152;28;20450;-62
2022/09/12 07:46:13;;;;;;;14.07;12.50;;;18.20;99.90;;;;;;4951118;29;20440;-62
2022/09/12 07:48:39;;;;;;;12.70;11.37;;;18.30;99.90;;;;;;4953632;29;20428;-62
2022/09/12 07:51:09;;;;;;;12.60;11.33;;;18.40;99.90;;;;;;4937397;29;20999;-62
2022/09/12 07:53:37;;;;;;;13.67;11.23;;;18.40;99.90;;;;;;4952528;29;20471;-62
2022/09/12 07:56:04;;;;;;;12.60;10.77;;;18.50;99.90;;;;;;4952594;29;20924;-62
2022/09/12 07:58:31;;;;;;;12.70;11.43;;;18.50;99.90;;;;;;4952910;28;20432;-62
2022/09/12 08:01:06;;;;;;;12.93;10.87;;;18.50;99.90;;;;;;4952846;29;20507;-62
2022/09/12 08:03:31;;;;;;;10.80;9.83;;;18.60;99.90;;;;;;4949636;29;20497;-62
2022/09/12 08:06:22;;;;;;;13.43;12.10;;;18.60;99.90;;;;;;4951570;29;20963;-62
2022/09/12 08:08:50;;;;;;;9.77;8.87;;;18.60;99.90;;;;;;4952904;29;20193;-62
2022/09/12 08:11:18;;;;;;;10.10;9.10;;;18.70;99.90;;;;;;4950966;29;20444;-62
2022/09/12 08:13:44;;;;;;;10.63;9.60;;;18.70;99.90;;;;;;4950282;29;20979;-62
2022/09/12 08:16:16;;;;;;;10.67;9.87;;;18.70;99.90;;;;;;4952544;28;20439;-62
2022/09/12 08:18:43;;;;;;;15.60;14.10;;;18.70;99.90;;;;;;5008198;28;20430;-64
2022/09/12 08:21:39;;;;;;;12.30;10.80;;;18.80;99.90;;;;;;5011745;28;20441;-62
2022/09/12 08:24:05;;;;;;;15.20;13.93;;;18.80;99.90;;;;;;5007023;28;20460;-62
2022/09/12 08:26:32;;;;;;;12.50;11.23;;;18.90;99.90;;;;;;5013725;28;20955;-62
2022/09/12 08:28:58;;;;;;;13.87;12.47;;;18.90;99.90;;;;;;5011662;28;20497;-63
2022/09/12 08:31:26;;;;;;;12.20;11.00;;;19.00;99.90;;;;;;5004908;28;20419;-62
2022/09/12 08:33:54;;;;;;;12.13;10.90;;;19.00;99.90;;;;;;4994636;28;20406;-62
2022/09/12 08:36:24;;;;;;;12.73;10.67;;;19.10;99.90;;;;;;5013136;28;20941;-63
2022/09/12 08:38:57;;;;;;;11.83;10.73;;;19.10;99.90;;;;;;5013433;28;20505;-62
2022/09/12 08:41:23;;;;;;;10.90;9.80;;;19.20;99.90;;;;;;5012304;28;20464;-62
2022/09/12 08:43:58;;;;;;;11.80;10.10;;;19.30;99.90;;;;;;5013472;28;20453;-62
2022/09/12 08:46:51;;;;;;;10.60;9.60;;;19.40;99.90;;;;;;5013429;28;20425;-62
2022/09/12 08:49:35;;;;;;;11.23;10.10;;;19.50;99.90;;;;;;5012011;28;20409;-63
2022/09/12 08:52:20;;;;;;;11.60;10.50;;;19.60;99.90;;;;;;4991259;28;20464;-62
2022/09/12 08:54:46;;;;;;;10.37;9.30;;;19.70;99.90;;;;;;5005504;28;20413;-61
2022/09/12 08:57:14;;;;;;;14.17;12.77;;;19.80;99.90;;;;;;5012670;28;20414;-62
2022/09/12 08:59:43;;;;;;;10.60;9.60;;;19.80;99.90;;;;;;5011708;28;20167;-62
2022/09/12 09:02:28;;;;;;;9.77;8.77;;;19.90;99.90;;;;;;5004834;28;20418;-63
2022/09/12 09:05:33;;;;;;;10.93;9.93;;;20.00;99.90;;;;;;4998996;28;20435;-62
2022/09/12 09:08:47;;;;;;;10.90;9.80;;;20.10;99.90;;;;;;4992679;28;20426;-63
2022/09/12 09:11:53;;;;;;;11.27;10.17;;;20.10;99.90;;;;;;4975487;28;20495;-62
2022/09/12 09:14:46;;;;;;;9.40;8.60;;;20.30;99.90;;;;;;5011973;28;20425;-62
2022/09/12 09:17:50;;;;;;;9.47;8.70;;;20.40;99.90;;;;;;5012379;28;20394;-63
2022/09/12 09:20:31;;;;;;;9.43;8.63;;;20.50;99.90;;;;;;4910749;29;20888;-63
2022/09/12 09:23:16;;;;;;;9.83;8.93;;;20.70;99.90;;;;;;5000226;28;20465;-63
2022/09/12 09:25:58;;;;;;;9.10;8.20;;;20.80;99.90;;;;;;5008244;28;20917;-62
2022/09/12 09:28:45;;;;;;;11.83;11.03;;;20.90;99.90;;;;;;5012677;28;20410;-62
2022/09/12 09:31:16;;;;;;;10.77;9.80;;;21.00;99.90;;;;;;5006953;28;20434;-62
2022/09/12 09:33:45;;;;;;;8.93;7.93;;;21.20;99.90;;;;;;5012211;28;20418;-63
2022/09/12 09:36:54;;;;;;;10.20;9.33;;;21.40;99.90;;;;;;5010786;28;20496;-63
2022/09/12 09:39:54;;;;;;;8.93;8.23;;;21.60;99.90;;;;;;5011118;28;20438;-64
2022/09/12 09:42:28;;;;;;;9.87;9.07;;;21.80;99.90;;;;;;5010419;28;20437;-64
2022/09/12 09:44:58;;;;;;;7.90;7.20;;;21.90;99.90;;;;;;5012634;28;20496;-65
2022/09/12 09:47:25;;;;;;;8.80;8.00;;;22.00;99.90;;;;;;5012636;28;20397;-65
2022/09/12 09:49:50;;;;;;;8.50;7.80;;;22.10;99.90;;;;;;5012673;28;20421;-64
2022/09/12 09:52:23;;;;;;;8.60;7.90;;;22.20;99.90;;;;;;5009958;28;20426;-64
2022/09/12 09:54:56;;;;;;;9.90;9.10;;;22.40;99.90;;;;;;5012992;28;20403;-65
2022/09/12 09:57:34;;;;;;;10.27;9.23;;;22.60;99.90;;;;;;5007047;28;20428;-64
2022/09/12 10:00:26;;;;;;;8.90;8.10;;;22.70;99.90;;;;;;5011448;28;20418;-67
2022/09/12 10:03:13;;;;;;;8.43;7.83;;;22.90;99.90;;;;;;4992367;28;20466;-64
2022/09/12 10:06:19;;;;;;;9.63;8.73;;;22.90;99.90;;;;;;4992640;28;20472;-65
2022/09/12 10:08:47;;;;;;;8.90;8.30;;;23.00;99.90;;;;;;4984227;28;20473;-64
2022/09/12 10:11:19;;;;;;;8.90;8.20;;;23.20;99.90;;;;;;4999819;28;20430;-64
2022/09/12 10:13:56;;;;;;;9.30;8.50;;;23.50;99.90;;;;;;4992779;28;20526;-64
2022/09/12 10:16:24;;;;;;;7.10;6.70;;;23.80;99.90;;;;;;4994221;28;20457;-66
2022/09/12 10:18:51;;;;;;;6.60;6.20;;;24.10;99.90;;;;;;5012042;28;20410;-64
2022/09/12 10:21:23;;;;;;;7.17;6.60;;;24.30;98.10;;;;;;5012239;28;20929;-64
2022/09/12 10:23:59;;;;;;;6.57;6.17;;;24.50;95.90;;;;;;5015285;28;20484;-65
2022/09/12 10:26:30;;;;;;;5.77;5.40;;;24.60;93.50;;;;;;5011956;28;20861;-67
2022/09/12 10:28:56;;;;;;;6.17;5.70;;;24.60;94.90;;;;;;4993888;28;20453;-67
2022/09/12 10:31:28;;;;;;;6.23;5.83;;;24.70;93.90;;;;;;4988629;28;20472;-67
2022/09/12 10:33:58;;;;;;;6.60;6.10;;;24.80;93.00;;;;;;5012179;28;20263;-68
2022/09/12 10:36:25;;;;;;;6.50;6.10;;;24.90;94.50;;;;;;5007234;28;20485;-66
2022/09/12 10:38:56;;;;;;;6.30;5.80;;;25.00;94.00;;;;;;5010746;28;20488;-67
2022/09/12 10:41:23;;;;;;;6.00;5.60;;;25.10;93.40;;;;;;5014492;28;21111;-67
2022/09/12 10:43:49;;;;;;;6.60;6.20;;;25.20;94.00;;;;;;5015275;28;20454;-67
2022/09/12 10:46:18;;;;;;;8.00;7.10;;;24.90;91.00;;;;;;5011563;28;20433;-67
2022/09/12 10:48:45;;;;;;;6.53;6.13;;;24.90;93.20;;;;;;5015096;28;20468;-67
2022/09/12 10:51:27;;;;;;;9.33;8.83;;;25.00;96.60;;;;;;5012628;28;20414;-67
2022/09/12 10:54:02;;;;;;;6.17;5.87;;;25.00;88.80;;;;;;4995065;28;20432;-70
2022/09/12 10:56:31;;;;;;;6.40;5.97;;;25.10;89.80;;;;;;5008917;28;20493;-66
2022/09/12 10:59:06;;;;;;;8.20;7.80;;;25.20;90.00;;;;;;5014109;28;20513;-67
2022/09/12 11:01:32;;;;;;;6.50;6.10;;;25.50;92.30;;;;;;5014343;28;20417;-67
2022/09/12 11:04:16;;;;;;;6.33;5.73;;;25.90;92.60;;;;;;5011477;28;20532;-71
2022/09/12 11:07:05;;;;;;;7.10;6.70;;;26.10;88.50;;;;;;4995324;28;20505;-67
2022/09/12 11:09:36;;;;;;;6.30;5.90;;;26.20;87.80;;;;;;4995617;28;20415;-68
2022/09/12 11:12:31;;;;;;;7.03;6.57;;;26.40;86.60;;;;;;5013949;28;20409;-67
2022/09/12 11:15:03;;;;;;;6.60;6.20;;;26.60;86.40;;;;;;4979523;28;20505;-67
2022/09/12 11:17:56;;;;;;;7.73;7.23;;;26.70;86.20;;;;;;5011757;28;21222;-67
2022/09/12 11:20:56;;;;;;;7.53;7.13;;;26.50;80.70;;;;;;4995053;28;21019;-67
2022/09/12 11:23:43;;;;;;;7.00;6.50;;;26.20;82.50;;;;;;4994591;28;20465;-67
2022/09/12 11:26:12;;;;;;;6.77;6.37;;;26.00;81.90;;;;;;5009818;28;20528;-67
2022/09/12 11:28:58;;;;;;;6.73;6.27;;;25.90;83.70;;;;;;5013275;28;20426;-66
2022/09/12 11:31:43;;;;;;;6.07;5.50;;;26.00;82.80;;;;;;5008838;28;20662;-67
2022/09/12 11:34:09;;;;;;;5.97;5.57;;;26.00;80.90;;;;;;4994138;28;20414;-67
2022/09/12 11:36:47;;;;;;;6.27;5.87;;;26.10;82.60;;;;;;5009991;28;20476;-67
2022/09/12 11:39:42;;;;;;;5.80;5.50;;;26.30;81.70;;;;;;5008706;28;20437;-67
2022/09/12 11:42:29;;;;;;;6.07;5.77;;;26.40;78.90;;;;;;4999046;28;20429;-73
2022/09/12 11:45:21;;;;;;;6.50;6.10;;;26.40;81.20;;;;;;5012394;28;20492;-66
2022/09/12 11:47:52;;;;;;;5.70;5.20;;;26.50;83.60;;;;;;4997840;28;20439;-66
2022/09/12 11:50:25;;;;;;;6.10;5.17;;;26.50;82.10;;;;;;4994361;28;20411;-66
2022/09/12 11:52:53;;;;;;;5.47;5.13;;;26.60;81.50;;;;;;4977363;28;20423;-66
2022/09/12 11:55:28;;;;;;;8.40;7.80;;;26.40;75.80;;;;;;4993467;28;20435;-67
2022/09/12 11:57:54;;;;;;;7.10;6.80;;;26.50;79.00;;;;;;4994700;28;20407;-66
2022/09/12 12:00:45;;;;;;;6.13;5.83;;;26.40;75.90;;;;;;4994178;28;20755;-66
2022/09/12 12:03:25;;;;;;;4.97;4.67;;;26.30;76.10;;;;;;5013529;28;20937;-66
2022/09/12 12:06:11;;;;;;;7.20;6.80;;;26.30;77.10;;;;;;5012922;28;20434;-64
2022/09/12 12:08:40;;;;;;;6.43;6.13;;;26.30;79.00;;;;;;5008823;28;20411;-64
2022/09/12 12:11:07;;;;;;;5.80;5.40;;;26.20;77.80;;;;;;4994051;28;20887;-69
2022/09/12 12:13:39;;;;;;;5.60;5.30;;;25.30;73.20;;;;;;4994591;28;20878;-64
2022/09/12 12:16:11;;;;;;;5.20;4.90;;;25.20;78.40;;;;;;4982183;28;20430;-64
2022/09/12 12:18:39;;;;;;;6.17;5.77;;;25.20;79.50;;;;;;5013783;28;20419;-63
2022/09/12 12:21:52;;;;;;;6.30;5.90;;;25.10;78.00;;;;;;5013870;28;20476;-64
2022/09/12 12:24:22;;;;;;;6.00;5.60;;;24.80;79.00;;;;;;5007548;28;20918;-64
2022/09/12 12:27:02;;;;;;;8.50;7.97;;;24.70;79.00;;;;;;5012725;28;20509;-64
2022/09/12 12:29:34;;;;;;;6.20;5.70;;;24.60;80.50;;;;;;5013108;28;20416;-64
2022/09/12 12:32:02;;;;;;;5.87;5.57;;;24.70;81.70;;;;;;5011290;28;20424;-64
2022/09/12 12:34:38;;;;;;;6.23;5.83;;;24.70;81.30;;;;;;5000778;28;20953;-65
2022/09/12 12:37:19;;;;;;;7.70;7.30;;;24.70;80.80;;;;;;4993902;28;20871;-64
2022/09/12 12:39:49;;;;;;;8.07;7.57;;;24.20;81.50;;;;;;5008310;28;20941;-64
2022/09/12 12:42:33;;;;;;;6.50;6.20;;;24.30;83.50;;;;;;4995243;28;20480;-64
2022/09/12 12:45:16;;;;;;;7.83;7.43;;;24.20;83.30;;;;;;5011566;28;20917;-64
2022/09/12 12:47:46;;;;;;;5.83;5.47;;;24.10;80.40;;;;;;5013364;28;20425;-64
2022/09/12 12:50:25;;;;;;;6.03;5.73;;;24.30;84.10;;;;;;5012801;28;20418;-64
2022/09/12 12:52:58;;;;;;;6.07;5.77;;;24.10;80.80;;;;;;5013272;28;20423;-64
2022/09/12 12:55:46;;;;;;;7.10;6.60;;;24.30;80.50;;;;;;5011606;28;20512;-64
2022/09/12 12:58:31;;;;;;;6.33;5.93;;;24.30;81.00;;;;;;5012648;28;20472;-64
2022/09/12 13:01:21;;;;;;;6.57;6.27;;;24.50;81.20;;;;;;4995513;28;20418;-64
2022/09/12 13:04:04;;;;;;;6.53;6.20;;;24.70;82.80;;;;;;5012360;28;20519;-64
2022/09/12 13:06:33;;;;;;;6.90;6.50;;;24.70;81.80;;;;;;5012043;28;20425;-64
2022/09/12 13:09:33;;;;;;;6.33;6.03;;;24.70;80.70;;;;;;5013018;28;20898;-64